Etusivu
METAR-TAF:

METAR-TAF

Lentoasemat :

Minneapolis-Saint Paulin kansainvälinen lentoasema

Minneapolis, Minnesota, Yhdysvallat

Leveyspiiri: 44-52-59N, Pituuspiiri: 093-13-44W, korkeus merenpinnasta: 256 m

Tämänhetkinen sää

Tämä raportti tehtiin 43 minuuttia sitten, kello 08.53 UTC
Tuuli 8 kn luoteesta
Lämpötila -15°C
Kosteus 65%
Ilmanpaine 1036 hPa
Näkyvyys: 16.1 km
Pilvistä 9000 ft:n korkeudessa

METAR: KMSP 190853Z 31008KT 10SM OVC090 M15/M20 A3059 RMK AO2 SLP379 T11501200 51017

Aika: 03:36 (09:36 UTC)

Sääennuste

Tämä raportti tehtiin 47 minuuttia sitten, kello 08.49 UTC
Ennuste voimassa 19. päivästä klo 09 UTC - 20. päivään klo 12 UTC
Tuuli 5 kn luoteesta
Näkyvyys: 10 km
Pilvistä 9000 ft:n korkeudessa
From 19. päivästä klo 1500 UTC
Tuuli 5 kn lännestä/luoteesta
Näkyvyys: 10 km
selkeää

TAF: KMSP 190849Z 1909/2012 31005KT P6SM OVC090 FM191500 30005KT P6SM SKC

Säähavainnot ja -ennusteet yli 4000 lentoasemalta (METAR- ja TAF-raportit).

Käytössä olevat sääasemat on merkitty karttaan keltaisilla ja punaisilla pisteillä.

Aseta hiiri pisteen päälle nähdäksesi sääaseman nimen.

Klikkaa sitten nähdäksesi säähavainnot ja -ennusteet.

Kartan vaihtaminen: klikkaa mustalla rastilla varustettuja vihreitä pisteitä, niin voit zoomata sisään; viivalla varustettua vihreää pistettä, niin voit zoomata ulos tai vihreitä nuolia, niin pääset viereisille kartoille.


METAR-TAF: